Map

Track Data

SID SEASON NUMBER BASIN SUBBASIN NAME ISO_TIME NATURE LAT LON WMO_WIND WMO_PRES WMO_AGENCY TRACK_TYPE DIST2LAND LANDFALL IFLAG USA_AGENCY USA_ATCF_ID USA_LAT USA_LON USA_RECORD USA_STATUS USA_WIND USA_PRES USA_SSHS USA_R34_NE USA_R34_SE USA_R34_SW USA_R34_NW USA_R50_NE USA_R50_SE USA_R50_SW USA_R50_NW USA_R64_NE USA_R64_SE USA_R64_SW USA_R64_NW USA_POCI USA_ROCI USA_RMW USA_EYE TOKYO_LAT TOKYO_LON TOKYO_GRADE TOKYO_WIND TOKYO_PRES TOKYO_R50_DIR TOKYO_R50_LONG TOKYO_R50_SHORT TOKYO_R30_DIR TOKYO_R30_LONG TOKYO_R30_SHORT TOKYO_LAND CMA_LAT CMA_LON CMA_CAT CMA_WIND CMA_PRES HKO_LAT HKO_LON HKO_CAT HKO_WIND HKO_PRES NEWDELHI_LAT NEWDELHI_LON NEWDELHI_GRADE NEWDELHI_WIND NEWDELHI_PRES NEWDELHI_CI NEWDELHI_DP NEWDELHI_POCI REUNION_LAT REUNION_LON REUNION_TYPE REUNION_WIND REUNION_PRES REUNION_TNUM REUNION_CI REUNION_RMW REUNION_R34_NE REUNION_R34_SE REUNION_R34_SW REUNION_R34_NW REUNION_R50_NE REUNION_R50_SE REUNION_R50_SW REUNION_R50_NW REUNION_R64_NE REUNION_R64_SE REUNION_R64_SW REUNION_R64_NW BOM_LAT BOM_LON BOM_TYPE BOM_WIND BOM_PRES BOM_TNUM BOM_CI BOM_RMW BOM_R34_NE BOM_R34_SE BOM_R34_SW BOM_R34_NW BOM_R50_NE BOM_R50_SE BOM_R50_SW BOM_R50_NW BOM_R64_NE BOM_R64_SE BOM_R64_SW BOM_R64_NW BOM_ROCI BOM_POCI BOM_EYE BOM_POS_METHOD BOM_PRES_METHOD NADI_LAT NADI_LON NADI_CAT NADI_WIND NADI_PRES WELLINGTON_LAT WELLINGTON_LON WELLINGTON_WIND WELLINGTON_PRES DS824_LAT DS824_LON DS824_STAGE DS824_WIND DS824_PRES TD9636_LAT TD9636_LON TD9636_STAGE TD9636_WIND TD9636_PRES TD9635_LAT TD9635_LON TD9635_WIND TD9635_PRES TD9635_ROCI NEUMANN_LAT NEUMANN_LON NEUMANN_CLASS NEUMANN_WIND NEUMANN_PRES MLC_LAT MLC_LON MLC_CLASS MLC_WIND MLC_PRES USA_GUST BOM_GUST BOM_GUST_PER REUNION_GUST REUNION_GUST_PER USA_SEAHGT USA_SEARAD_NE USA_SEARAD_SE USA_SEARAD_SW USA_SEARAD_NW STORM_SPEED STORM_DIR
1951205N17089 1951 46 NI BB NOT_NAMED 1951-07-23 18:00:00 TS 16.7000 89.4000 main 486 486 O________O____ jtwc_io IO061951 16.7000 89.4000 -1 16.7000 89.4000 TC 0 0
1951205N17089 1951 46 NI BB NOT_NAMED 1951-07-23 21:00:00 TS 16.7100 89.3774 main 486 470 P________P____ IO061951 16.7100 89.3774 -1 16.7100 89.3774 TC 1 317
1951205N17089 1951 46 NI BB NOT_NAMED 1951-07-24 00:00:00 TS 16.8000 89.3000 main 470 440 O________O____ jtwc_io IO061951 16.8000 89.3000 -1 16.8000 89.3000 TC 25 4 322
1951205N17089 1951 46 NI BB NOT_NAMED 1951-07-24 03:00:00 TS 17.0178 89.1267 main 440 400 P________PO___ IO061951 17.0200 89.1301 -1 17.0200 89.1301 TC 25 17.0000 89.1000 1 6 322
1951205N17089 1951 46 NI BB NOT_NAMED 1951-07-24 06:00:00 TS 17.3001 88.8868 main 400 363 O________OP___ jtwc_io IO061951 17.3000 88.9000 -1 17.3000 88.9000 TC 25 17.3006 88.8342 1 7 319
1951205N17089 1951 46 NI BB NOT_NAMED 1951-07-24 09:00:00 TS 17.5611 88.6348 main 354 323 P________PP___ IO061951 17.5500 88.6575 -1 17.5500 88.6575 TC 25 17.5908 88.5742 1 7 317
1951205N17089 1951 46 NI BB NOT_NAMED 1951-07-24 12:00:00 TS 17.8202 88.3757 main 323 284 O________OP___ jtwc_io IO061951 17.8000 88.4000 -1 17.8000 88.4000 TC 25 17.8606 88.3272 1 7 317
1951205N17089 1951 46 NI BB NOT_NAMED 1951-07-24 15:00:00 TS 18.0716 88.1383 main 277 246 P________PO___ IO061951 18.0574 88.1574 -1 18.0574 88.1574 TC 25 18.1000 88.1000 1 7 317
1951205N17089 1951 46 NI BB NOT_NAMED 1951-07-24 18:00:00 TS 18.3020 87.8972 main 246 216 O________OP___ jtwc_io IO061951 18.3000 87.9000 -1 18.3000 87.9000 TC 25 18.3060 87.8915 1 6 311
1951205N17089 1951 46 NI BB NOT_NAMED 1951-07-24 21:00:00 TS 18.4911 87.6373 main 209 173 P________PP___ IO061951 18.4849 87.6222 -1 18.4849 87.6222 TC 30 18.5035 87.6674 1 7 307
1951205N17089 1951 46 NI BB NOT_NAMED 1951-07-25 00:00:00 TS 18.7081 87.3282 main 173 128 O________OP___ jtwc_io IO061951 18.7000 87.3000 -1 18.7000 87.3000 TC 35 18.7243 87.3847 1 8 309
1951205N17089 1951 46 NI BB NOT_NAMED 1951-07-25 03:00:00 TS 19.0081 86.9730 main 128 67 P________PO___ IO061951 19.0121 86.9596 -1 19.0121 86.9596 TC 30 19.0000 87.0000 2 11 311
1951205N17089 1951 46 NI BB NOT_NAMED 1951-07-25 06:00:00 TS 19.3921 86.4889 main 67 10 O________OP___ jtwc_io IO061951 19.4000 86.5000 -1 19.4000 86.5000 TC 25 19.3762 86.4668 2 14 308
1951205N17089 1951 46 NI BB NOT_NAMED 1951-07-25 09:00:00 TS 19.8304 85.8396 main 0 0 P________PP___ IO061951 19.8427 85.8452 -1 19.8427 85.8452 TC 25 19.8057 85.8286 2 16 305
1951205N17089 1951 46 NI BB NOT_NAMED 1951-07-25 12:00:00 TS 20.2858 85.1086 main 0 0 O________OP___ jtwc_io IO061951 20.3000 85.1000 -1 20.3000 85.1000 TC 25 20.2572 85.1258 2 16 303
1951205N17089 1951 46 NI BB NOT_NAMED 1951-07-25 15:00:00 TS 20.7048 84.3997 main 0 0 P________PO___ IO061951 20.7072 84.3995 -1 20.7072 84.3995 TC 25 20.7000 84.4000 1 15 302
1951205N17089 1951 46 NI BB NOT_NAMED 1951-07-25 18:00:00 TS 21.1000 83.7152 main 0 0 O________OP___ jtwc_io IO061951 21.1000 83.7000 -1 21.1000 83.7000 TC 25 21.1000 83.7455 1 15 302
1951205N17089 1951 46 NI BB NOT_NAMED 1951-07-25 21:00:00 TS 21.5048 83.0292 main 0 0 P________PP___ IO061951 21.5146 83.0073 -1 21.5146 83.0073 TC 25 21.4850 83.0731 1 15 301
1951205N17089 1951 46 NI BB NOT_NAMED 1951-07-26 00:00:00 TS 21.8842 82.3214 main 0 0 O________OP___ jtwc_io IO061951 21.9000 82.3000 -1 21.9000 82.3000 TC 25 21.8527 82.3642 1 15 298
1951205N17089 1951 46 NI BB NOT_NAMED 1951-07-26 03:00:00 TS 22.2095 81.5912 main 0 0 P________PO___ IO061951 22.2143 81.5868 -1 22.2143 81.5868 TC 25 22.2000 81.6000 1 16 294
1951205N17089 1951 46 NI BB NOT_NAMED 1951-07-26 06:00:00 TS 22.5062 80.7761 main 0 0 O________OP___ jtwc_io IO061951 22.5000 80.8000 -1 22.5000 80.8000 TC 25 22.5185 80.7283 1 17 290
1951205N17089 1951 46 NI BB NOT_NAMED 1951-07-26 09:00:00 TS 22.8056 79.8454 main 0 0 P________PP___ IO061951 22.8002 79.8649 -1 22.8002 79.8649 TC 25 22.8165 79.8064 1 18 289
1951205N17089 1951 46 NI BB NOT_NAMED 1951-07-26 12:00:00 TS 23.1020 78.8938 main 0 0 O________OP___ jtwc_io IO061951 23.1000 78.9000 -1 23.1000 78.9000 TC 25 23.1060 78.8813 1 18 289
1951205N17089 1951 46 NI BB NOT_NAMED 1951-07-26 15:00:00 TS 23.3947 78.0130 main 0 0 P________PO___ IO061951 23.3920 78.0195 -1 23.3920 78.0195 TC 25 23.4000 78.0000 1 17 291
1951205N17089 1951 46 NI AS NOT_NAMED 1951-07-26 18:00:00 TS 23.6991 77.1824 main 0 0 O________OP___ jtwc_io IO061951 23.7000 77.2000 -1 23.7000 77.2000 TC 25 23.6972 77.1473 1 16 293
1951205N17089 1951 46 NI AS NOT_NAMED 1951-07-26 21:00:00 TS 24.0299 76.3833 main 0 0 P________PP___ IO061951 24.0424 76.3975 -1 24.0424 76.3975 TC 25 24.0050 76.3550 1 15 296
1951205N17089 1951 46 NI AS NOT_NAMED 1951-07-27 00:00:00 TS 24.3784 75.6867 main 0 0 O________OP___ jtwc_io IO061951 24.4000 75.7000 -1 24.4000 75.7000 TC 25 24.3352 75.6602 1 13 301
1951205N17089 1951 46 NI AS NOT_NAMED 1951-07-27 03:00:00 TS 24.7181 75.1164 main 0 0 P________PO___ IO061951 24.7272 75.1246 -1 24.7272 75.1246 TC 25 24.7000 75.1000 1 12 309
1951205N17089 1951 46 NI AS NOT_NAMED 1951-07-27 06:00:00 TS 25.1081 74.6933 main 0 0 O________OP___ jtwc_io IO061951 25.1000 74.7000 -1 25.1000 74.7000 TC 25 25.1243 74.6800 1 11 323
1951205N17089 1951 46 NI AS NOT_NAMED 1951-07-27 09:00:00 TS 25.5891 74.3921 main 0 0 P________PP___ IO061951 25.5923 74.3899 -1 25.5923 74.3899 TC 25 25.5827 74.3964 1 11 336
1951205N17089 1951 46 NI AS NOT_NAMED 1951-07-27 12:00:00 TS 26.0833 74.2049 main 0 0 O________OP___ jtwc_io IO061951 26.1000 74.2000 -1 26.1000 74.2000 TC 25 26.0499 74.2147 1 10 343
1951205N17089 1951 46 NI AS NOT_NAMED 1951-07-27 15:00:00 TS 26.5099 74.0798 main 0 0 P________PO___ IO061951 26.5149 74.0697 -1 26.5149 74.0697 TC 25 26.5000 74.1000 1 8 348
1951205N17089 1951 46 NI AS NOT_NAMED 1951-07-27 18:00:00 TS 26.9052 74.0087 main 0 0 O________OP___ jtwc_io IO061951 26.9000 74.0000 -1 26.9000 74.0000 TC 25 26.9129 74.0218 1 8 352
1951205N17089 1951 46 NI AS NOT_NAMED 1951-07-27 21:00:00 TS 27.2943 73.9563 main 0 0 P________PP___ IO061951 27.2950 73.9477 -1 27.2950 73.9477 TC 25 27.2933 73.9678 1 8 354
1951205N17089 1951 46 NI AS NOT_NAMED 1951-07-28 00:00:00 TS 27.6760 73.9149 main 0 0 O________OP___ jtwc_io IO061951 27.7000 73.9000 -1 27.7000 73.9000 TC 25 27.6521 73.9299 1 7 356
1951205N17089 1951 46 NI AS NOT_NAMED 1951-07-28 03:00:00 NR 28.0000 73.9000 main 0 __________O___ IO061951 -1 TC 28.0000 73.9000 1 7 0

About IBTrACS Database

This database is a web-friendly format of International Best Track Archive for Climate Stewardship (IBTrACS), a global best track data archive curated by NOAA dating back to 1842.

Updated: 2021-12-08